sensor_id;sensor_type;location;lat;lon;timestamp;temperature;humidity
4699;DHT22;33708;49.466;11.176;2023-04-03T00:01:10;4.00;1.00
4699;DHT22;33708;49.466;11.176;2023-04-03T00:03:36;3.90;1.00
4699;DHT22;33708;49.466;11.176;2023-04-03T00:06:02;3.90;1.00
4699;DHT22;33708;49.466;11.176;2023-04-03T00:08:28;3.80;1.00
4699;DHT22;33708;49.466;11.176;2023-04-03T00:10:56;3.70;1.00
4699;DHT22;33708;49.466;11.176;2023-04-03T00:13:22;3.70;1.00
4699;DHT22;33708;49.466;11.176;2023-04-03T00:15:48;3.70;1.00
4699;DHT22;33708;49.466;11.176;2023-04-03T00:18:13;3.70;1.00
4699;DHT22;33708;49.466;11.176;2023-04-03T00:20:39;3.60;1.00
4699;DHT22;33708;49.466;11.176;2023-04-03T00:23:05;3.70;1.00
4699;DHT22;33708;49.466;11.176;2023-04-03T00:25:31;3.70;1.00
4699;DHT22;33708;49.466;11.176;2023-04-03T00:27:56;3.70;1.00
4699;DHT22;33708;49.466;11.176;2023-04-03T00:30:22;3.70;1.00
4699;DHT22;33708;49.466;11.176;2023-04-03T00:32:49;3.60;1.00
4699;DHT22;33708;49.466;11.176;2023-04-03T00:35:15;3.60;1.00
4699;DHT22;33708;49.466;11.176;2023-04-03T00:37:43;3.80;1.00
4699;DHT22;33708;49.466;11.176;2023-04-03T00:40:10;3.90;1.00
4699;DHT22;33708;49.466;11.176;2023-04-03T00:42:37;3.90;1.00
4699;DHT22;33708;49.466;11.176;2023-04-03T00:47:29;3.80;1.00
4699;DHT22;33708;49.466;11.176;2023-04-03T00:49:56;3.80;1.00
4699;DHT22;33708;49.466;11.176;2023-04-03T00:52:25;3.60;1.00
4699;DHT22;33708;49.466;11.176;2023-04-03T00:54:54;3.70;1.00
4699;DHT22;33708;49.466;11.176;2023-04-03T00:57:22;3.70;1.00
4699;DHT22;33708;49.466;11.176;2023-04-03T00:59:52;3.70;1.00
4699;DHT22;33708;49.466;11.176;2023-04-03T01:02:20;3.70;1.00
4699;DHT22;33708;49.466;11.176;2023-04-03T01:04:46;3.60;1.00
4699;DHT22;33708;49.466;11.176;2023-04-03T01:07:19;3.60;1.00
4699;DHT22;33708;49.466;11.176;2023-04-03T01:09:48;3.50;1.00
4699;DHT22;33708;49.466;11.176;2023-04-03T01:12:21;3.60;1.00
4699;DHT22;33708;49.466;11.176;2023-04-03T01:14:50;3.60;1.00
4699;DHT22;33708;49.466;11.176;2023-04-03T01:17:35;3.50;1.00
4699;DHT22;33708;49.466;11.176;2023-04-03T01:25:26;3.10;1.00
4699;DHT22;33708;49.466;11.176;2023-04-03T01:27:52;3.00;1.00
4699;DHT22;33708;49.466;11.176;2023-04-03T01:30:20;2.90;1.00
4699;DHT22;33708;49.466;11.176;2023-04-03T01:32:46;2.90;1.00
4699;DHT22;33708;49.466;11.176;2023-04-03T01:35:12;2.90;1.00
4699;DHT22;33708;49.466;11.176;2023-04-03T01:37:37;3.00;1.00
4699;DHT22;33708;49.466;11.176;2023-04-03T01:40:03;3.00;1.00
4699;DHT22;33708;49.466;11.176;2023-04-03T01:42:29;2.90;1.00
4699;DHT22;33708;49.466;11.176;2023-04-03T01:44:55;3.00;1.00
4699;DHT22;33708;49.466;11.176;2023-04-03T01:47:21;3.00;1.00
4699;DHT22;33708;49.466;11.176;2023-04-03T01:49:47;2.80;1.00
4699;DHT22;33708;49.466;11.176;2023-04-03T01:52:13;2.70;1.00
4699;DHT22;33708;49.466;11.176;2023-04-03T01:54:39;2.60;1.00
4699;DHT22;33708;49.466;11.176;2023-04-03T01:57:04;2.40;1.00
4699;DHT22;33708;49.466;11.176;2023-04-03T01:59:30;2.40;1.00
4699;DHT22;33708;49.466;11.176;2023-04-03T02:01:56;2.40;1.00
4699;DHT22;33708;49.466;11.176;2023-04-03T02:04:21;2.30;1.00
4699;DHT22;33708;49.466;11.176;2023-04-03T02:06:47;2.30;1.00
4699;DHT22;33708;49.466;11.176;2023-04-03T02:09:13;2.30;1.00
4699;DHT22;33708;49.466;11.176;2023-04-03T02:11:38;2.30;1.00
4699;DHT22;33708;49.466;11.176;2023-04-03T02:14:04;1.90;1.00
4699;DHT22;33708;49.466;11.176;2023-04-03T02:16:30;1.80;1.00
4699;DHT22;33708;49.466;11.176;2023-04-03T02:18:56;1.80;1.00
4699;DHT22;33708;49.466;11.176;2023-04-03T02:21:22;1.70;1.00
4699;DHT22;33708;49.466;11.176;2023-04-03T02:23:47;1.60;1.00
4699;DHT22;33708;49.466;11.176;2023-04-03T02:26:15;1.40;1.00
4699;DHT22;33708;49.466;11.176;2023-04-03T02:28:40;1.30;1.80
4699;DHT22;33708;49.466;11.176;2023-04-03T02:31:06;1.30;8.10
4699;DHT22;33708;49.466;11.176;2023-04-03T02:33:33;1.20;8.80
4699;DHT22;33708;49.466;11.176;2023-04-03T02:35:59;1.20;14.60
4699;DHT22;33708;49.466;11.176;2023-04-03T02:38:25;1.20;13.40
4699;DHT22;33708;49.466;11.176;2023-04-03T02:40:51;1.10;6.80
4699;DHT22;33708;49.466;11.176;2023-04-03T02:43:17;1.10;11.50
4699;DHT22;33708;49.466;11.176;2023-04-03T02:45:43;1.20;34.70
4699;DHT22;33708;49.466;11.176;2023-04-03T02:48:09;1.30;43.50
4699;DHT22;33708;49.466;11.176;2023-04-03T02:50:34;1.30;37.70
4699;DHT22;33708;49.466;11.176;2023-04-03T02:53:01;1.20;22.80
4699;DHT22;33708;49.466;11.176;2023-04-03T02:55:26;1.00;21.50
4699;DHT22;33708;49.466;11.176;2023-04-03T02:57:52;0.90;35.50
4699;DHT22;33708;49.466;11.176;2023-04-03T03:00:18;0.90;22.90
4699;DHT22;33708;49.466;11.176;2023-04-03T03:02:43;0.80;27.20
4699;DHT22;33708;49.466;11.176;2023-04-03T03:05:09;0.70;21.00
4699;DHT22;33708;49.466;11.176;2023-04-03T03:07:34;0.80;57.30
4699;DHT22;33708;49.466;11.176;2023-04-03T03:10:00;0.90;34.80
4699;DHT22;33708;49.466;11.176;2023-04-03T03:12:26;0.80;15.60
4699;DHT22;33708;49.466;11.176;2023-04-03T03:14:51;0.70;16.20
4699;DHT22;33708;49.466;11.176;2023-04-03T03:17:17;0.80;36.10
4699;DHT22;33708;49.466;11.176;2023-04-03T03:19:43;0.90;16.00
4699;DHT22;33708;49.466;11.176;2023-04-03T03:22:09;0.90;14.10
4699;DHT22;33708;49.466;11.176;2023-04-03T03:24:34;0.90;30.80
4699;DHT22;33708;49.466;11.176;2023-04-03T03:27:00;1.10;26.10
4699;DHT22;33708;49.466;11.176;2023-04-03T03:29:26;1.10;10.20
4699;DHT22;33708;49.466;11.176;2023-04-03T03:31:51;1.10;4.30
4699;DHT22;33708;49.466;11.176;2023-04-03T03:34:17;1.20;9.20
4699;DHT22;33708;49.466;11.176;2023-04-03T03:36:43;1.10;4.20
4699;DHT22;33708;49.466;11.176;2023-04-03T03:39:09;1.20;14.80
4699;DHT22;33708;49.466;11.176;2023-04-03T03:41:34;1.30;27.10
4699;DHT22;33708;49.466;11.176;2023-04-03T03:44:00;1.20;5.90
4699;DHT22;33708;49.466;11.176;2023-04-03T03:46:26;1.20;23.10
4699;DHT22;33708;49.466;11.176;2023-04-03T03:48:51;1.10;10.10
4699;DHT22;33708;49.466;11.176;2023-04-03T03:51:17;1.00;22.40
4699;DHT22;33708;49.466;11.176;2023-04-03T03:53:43;1.10;27.50
4699;DHT22;33708;49.466;11.176;2023-04-03T03:56:08;1.10;28.00
4699;DHT22;33708;49.466;11.176;2023-04-03T03:58:34;1.20;33.80
4699;DHT22;33708;49.466;11.176;2023-04-03T04:01:02;1.10;24.00
4699;DHT22;33708;49.466;11.176;2023-04-03T04:03:27;0.90;23.00
4699;DHT22;33708;49.466;11.176;2023-04-03T04:05:53;0.80;31.60
4699;DHT22;33708;49.466;11.176;2023-04-03T04:08:18;0.80;44.70
4699;DHT22;33708;49.466;11.176;2023-04-03T04:10:44;0.80;39.40
4699;DHT22;33708;49.466;11.176;2023-04-03T04:13:10;0.70;34.20
4699;DHT22;33708;49.466;11.176;2023-04-03T04:15:35;0.60;36.20
4699;DHT22;33708;49.466;11.176;2023-04-03T04:18:01;0.50;39.30
4699;DHT22;33708;49.466;11.176;2023-04-03T04:20:26;0.50;50.30
4699;DHT22;33708;49.466;11.176;2023-04-03T04:22:52;0.40;47.50
4699;DHT22;33708;49.466;11.176;2023-04-03T04:25:17;0.30;50.00
4699;DHT22;33708;49.466;11.176;2023-04-03T04:27:43;0.20;60.30
4699;DHT22;33708;49.466;11.176;2023-04-03T04:30:10;0.10;70.50
4699;DHT22;33708;49.466;11.176;2023-04-03T04:32:36;0.10;86.90
4699;DHT22;33708;49.466;11.176;2023-04-03T04:35:02;0.00;78.30
4699;DHT22;33708;49.466;11.176;2023-04-03T04:37:29;-0.20;91.80
4699;DHT22;33708;49.466;11.176;2023-04-03T04:39:55;-0.10;99.90
4699;DHT22;33708;49.466;11.176;2023-04-03T04:42:20;0.00;99.90
4699;DHT22;33708;49.466;11.176;2023-04-03T04:44:46;0.00;97.50
4699;DHT22;33708;49.466;11.176;2023-04-03T04:47:12;-0.10;99.90
4699;DHT22;33708;49.466;11.176;2023-04-03T04:49:37;0.10;99.90
4699;DHT22;33708;49.466;11.176;2023-04-03T04:52:03;0.30;99.90
4699;DHT22;33708;49.466;11.176;2023-04-03T04:54:28;0.30;95.80
4699;DHT22;33708;49.466;11.176;2023-04-03T04:56:54;0.20;94.70
4699;DHT22;33708;49.466;11.176;2023-04-03T04:59:20;0.20;96.50
4699;DHT22;33708;49.466;11.176;2023-04-03T05:01:45;0.20;93.20
4699;DHT22;33708;49.466;11.176;2023-04-03T05:04:11;0.40;99.90
4699;DHT22;33708;49.466;11.176;2023-04-03T05:06:38;0.50;93.00
4699;DHT22;33708;49.466;11.176;2023-04-03T05:09:04;0.60;86.60
4699;DHT22;33708;49.466;11.176;2023-04-03T05:11:29;0.80;76.50
4699;DHT22;33708;49.466;11.176;2023-04-03T05:13:55;1.00;82.60
4699;DHT22;33708;49.466;11.176;2023-04-03T05:16:21;1.00;54.50
4699;DHT22;33708;49.466;11.176;2023-04-03T05:18:46;0.90;62.40
4699;DHT22;33708;49.466;11.176;2023-04-03T05:21:12;1.10;84.70
4699;DHT22;33708;49.466;11.176;2023-04-03T05:23:38;1.20;56.00
4699;DHT22;33708;49.466;11.176;2023-04-03T05:26:03;1.30;57.90
4699;DHT22;33708;49.466;11.176;2023-04-03T05:28:29;1.40;51.40
4699;DHT22;33708;49.466;11.176;2023-04-03T05:30:58;1.70;48.50
4699;DHT22;33708;49.466;11.176;2023-04-03T05:33:25;1.90;47.90
4699;DHT22;33708;49.466;11.176;2023-04-03T05:35:52;2.10;46.70
4699;DHT22;33708;49.466;11.176;2023-04-03T05:38:18;2.40;52.00
4699;DHT22;33708;49.466;11.176;2023-04-03T05:40:44;2.60;30.30
4699;DHT22;33708;49.466;11.176;2023-04-03T05:43:10;2.60;27.20
4699;DHT22;33708;49.466;11.176;2023-04-03T05:45:35;2.80;20.50
4699;DHT22;33708;49.466;11.176;2023-04-03T05:48:01;2.70;6.70
4699;DHT22;33708;49.466;11.176;2023-04-03T05:50:27;2.50;13.60
4699;DHT22;33708;49.466;11.176;2023-04-03T05:52:56;2.70;11.70
4699;DHT22;33708;49.466;11.176;2023-04-03T05:55:22;2.80;22.00
4699;DHT22;33708;49.466;11.176;2023-04-03T05:57:48;3.20;32.70
4699;DHT22;33708;49.466;11.176;2023-04-03T06:00:14;3.30;4.20
4699;DHT22;33708;49.466;11.176;2023-04-03T06:02:41;3.30;1.20
4699;DHT22;33708;49.466;11.176;2023-04-03T06:05:07;3.40;1.00
4699;DHT22;33708;49.466;11.176;2023-04-03T06:07:34;3.10;1.00
4699;DHT22;33708;49.466;11.176;2023-04-03T06:10:00;3.20;1.00
4699;DHT22;33708;49.466;11.176;2023-04-03T06:12:26;3.30;1.00
4699;DHT22;33708;49.466;11.176;2023-04-03T06:14:54;3.40;1.00
4699;DHT22;33708;49.466;11.176;2023-04-03T06:17:19;3.40;1.00
4699;DHT22;33708;49.466;11.176;2023-04-03T06:19:45;3.60;1.00
4699;DHT22;33708;49.466;11.176;2023-04-03T06:22:11;3.70;1.00
4699;DHT22;33708;49.466;11.176;2023-04-03T06:24:37;3.80;1.00
4699;DHT22;33708;49.466;11.176;2023-04-03T06:27:03;3.80;1.00
4699;DHT22;33708;49.466;11.176;2023-04-03T06:29:29;3.80;1.00
4699;DHT22;33708;49.466;11.176;2023-04-03T06:31:55;3.90;1.00
4699;DHT22;33708;49.466;11.176;2023-04-03T06:34:21;3.90;1.00
4699;DHT22;33708;49.466;11.176;2023-04-03T06:36:46;4.20;1.00
4699;DHT22;33708;49.466;11.176;2023-04-03T06:39:19;4.20;1.00
4699;DHT22;33708;49.466;11.176;2023-04-03T06:41:48;4.40;1.00
4699;DHT22;33708;49.466;11.176;2023-04-03T06:44:14;4.80;1.00
4699;DHT22;33708;49.466;11.176;2023-04-03T06:46:42;4.60;1.00
4699;DHT22;33708;49.466;11.176;2023-04-03T06:49:08;4.90;1.00
4699;DHT22;33708;49.466;11.176;2023-04-03T06:51:34;4.80;1.00
4699;DHT22;33708;49.466;11.176;2023-04-03T06:54:00;4.70;1.00
4699;DHT22;33708;49.466;11.176;2023-04-03T06:56:27;4.80;1.00
4699;DHT22;33708;49.466;11.176;2023-04-03T06:58:54;4.90;1.00
4699;DHT22;33708;49.466;11.176;2023-04-03T07:01:23;4.90;1.00
4699;DHT22;33708;49.466;11.176;2023-04-03T07:03:49;4.60;1.00
4699;DHT22;33708;49.466;11.176;2023-04-03T07:06:16;5.20;1.00
4699;DHT22;33708;49.466;11.176;2023-04-03T07:08:42;5.40;1.00
4699;DHT22;33708;49.466;11.176;2023-04-03T07:11:09;5.00;1.00
4699;DHT22;33708;49.466;11.176;2023-04-03T07:13:35;5.20;1.00
4699;DHT22;33708;49.466;11.176;2023-04-03T07:16:01;5.30;1.00
4699;DHT22;33708;49.466;11.176;2023-04-03T07:18:29;5.00;1.00
4699;DHT22;33708;49.466;11.176;2023-04-03T07:20:54;4.70;1.00
4699;DHT22;33708;49.466;11.176;2023-04-03T07:23:21;4.90;1.00
4699;DHT22;33708;49.466;11.176;2023-04-03T07:25:48;5.00;1.00
4699;DHT22;33708;49.466;11.176;2023-04-03T07:28:15;5.00;1.00
4699;DHT22;33708;49.466;11.176;2023-04-03T07:30:45;5.20;1.00
4699;DHT22;33708;49.466;11.176;2023-04-03T07:33:12;5.70;1.00
4699;DHT22;33708;49.466;11.176;2023-04-03T07:35:38;5.10;1.00
4699;DHT22;33708;49.466;11.176;2023-04-03T07:38:04;5.30;1.00
4699;DHT22;33708;49.466;11.176;2023-04-03T07:40:30;5.10;1.00
4699;DHT22;33708;49.466;11.176;2023-04-03T07:42:56;5.10;1.00
4699;DHT22;33708;49.466;11.176;2023-04-03T07:45:22;5.50;1.00
4699;DHT22;33708;49.466;11.176;2023-04-03T07:47:48;5.60;1.00
4699;DHT22;33708;49.466;11.176;2023-04-03T07:50:14;5.70;1.00
4699;DHT22;33708;49.466;11.176;2023-04-03T07:52:40;5.50;1.00
4699;DHT22;33708;49.466;11.176;2023-04-03T07:55:06;5.70;1.00
4699;DHT22;33708;49.466;11.176;2023-04-03T07:57:32;6.10;1.00
4699;DHT22;33708;49.466;11.176;2023-04-03T07:59:57;6.10;1.00
4699;DHT22;33708;49.466;11.176;2023-04-03T08:02:23;6.00;1.00
4699;DHT22;33708;49.466;11.176;2023-04-03T08:04:48;6.80;1.00
4699;DHT22;33708;49.466;11.176;2023-04-03T08:07:14;7.00;1.00
4699;DHT22;33708;49.466;11.176;2023-04-03T08:09:40;7.10;1.00
4699;DHT22;33708;49.466;11.176;2023-04-03T08:12:06;7.90;1.00
4699;DHT22;33708;49.466;11.176;2023-04-03T08:14:33;7.40;1.00
4699;DHT22;33708;49.466;11.176;2023-04-03T08:17:00;7.60;1.00
4699;DHT22;33708;49.466;11.176;2023-04-03T08:19:26;7.20;1.00
4699;DHT22;33708;49.466;11.176;2023-04-03T08:21:56;8.50;1.00
4699;DHT22;33708;49.466;11.176;2023-04-03T08:24:24;11.40;1.00
4699;DHT22;33708;49.466;11.176;2023-04-03T08:26:50;10.40;1.00
4699;DHT22;33708;49.466;11.176;2023-04-03T08:29:15;9.00;1.00
4699;DHT22;33708;49.466;11.176;2023-04-03T08:31:41;8.20;1.00
4699;DHT22;33708;49.466;11.176;2023-04-03T08:34:06;8.30;1.00
4699;DHT22;33708;49.466;11.176;2023-04-03T08:36:32;8.20;1.00
4699;DHT22;33708;49.466;11.176;2023-04-03T08:38:58;7.90;1.00
4699;DHT22;33708;49.466;11.176;2023-04-03T08:41:38;8.20;1.00
4699;DHT22;33708;49.466;11.176;2023-04-03T08:44:15;8.70;1.00
4699;DHT22;33708;49.466;11.176;2023-04-03T08:51:58;7.70;1.00
4699;DHT22;33708;49.466;11.176;2023-04-03T08:54:29;7.70;1.00
4699;DHT22;33708;49.466;11.176;2023-04-03T08:56:56;11.50;1.00
4699;DHT22;33708;49.466;11.176;2023-04-03T08:59:33;14.20;1.00
4699;DHT22;33708;49.466;11.176;2023-04-03T09:02:02;11.60;1.00
4699;DHT22;33708;49.466;11.176;2023-04-03T09:04:31;12.40;1.00
4699;DHT22;33708;49.466;11.176;2023-04-03T09:07:04;12.30;1.00
4699;DHT22;33708;49.466;11.176;2023-04-03T09:09:39;11.10;1.00
4699;DHT22;33708;49.466;11.176;2023-04-03T09:12:15;9.40;1.00
4699;DHT22;33708;49.466;11.176;2023-04-03T09:14:46;8.40;1.00
4699;DHT22;33708;49.466;11.176;2023-04-03T09:20:46;8.30;1.00
4699;DHT22;33708;49.466;11.176;2023-04-03T09:23:20;7.70;1.00
4699;DHT22;33708;49.466;11.176;2023-04-03T09:25:47;7.00;1.00
4699;DHT22;33708;49.466;11.176;2023-04-03T09:28:14;7.10;1.00
4699;DHT22;33708;49.466;11.176;2023-04-03T09:30:39;7.40;1.00
4699;DHT22;33708;49.466;11.176;2023-04-03T09:33:05;7.70;1.00
4699;DHT22;33708;49.466;11.176;2023-04-03T09:35:37;7.30;1.00
4699;DHT22;33708;49.466;11.176;2023-04-03T09:40:39;8.20;1.00
4699;DHT22;33708;49.466;11.176;2023-04-03T09:45:44;8.20;1.00
4699;DHT22;33708;49.466;11.176;2023-04-03T09:53:30;8.80;1.00
4699;DHT22;33708;49.466;11.176;2023-04-03T09:55:57;8.70;1.00
4699;DHT22;33708;49.466;11.176;2023-04-03T09:58:37;9.10;1.00
4699;DHT22;33708;49.466;11.176;2023-04-03T10:01:03;8.90;1.00
4699;DHT22;33708;49.466;11.176;2023-04-03T10:03:33;8.20;1.00
4699;DHT22;33708;49.466;11.176;2023-04-03T10:06:24;7.90;1.00
4699;DHT22;33708;49.466;11.176;2023-04-03T10:12:01;8.70;1.00
4699;DHT22;33708;49.466;11.176;2023-04-03T10:14:28;9.20;1.00
4699;DHT22;33708;49.466;11.176;2023-04-03T10:23:02;8.80;1.00
4699;DHT22;33708;49.466;11.176;2023-04-03T10:25:35;8.90;1.00
4699;DHT22;33708;49.466;11.176;2023-04-03T10:28:46;8.70;1.00
4699;DHT22;33708;49.466;11.176;2023-04-03T10:37:05;8.00;1.00
4699;DHT22;33708;49.466;11.176;2023-04-03T10:39:57;7.70;1.00
4699;DHT22;33708;49.466;11.176;2023-04-03T10:46:20;8.20;1.00
4699;DHT22;33708;49.466;11.176;2023-04-03T10:48:49;8.70;1.00
4699;DHT22;33708;49.466;11.176;2023-04-03T10:54:08;8.40;1.00
4699;DHT22;33708;49.466;11.176;2023-04-03T10:59:31;6.90;1.00
4699;DHT22;33708;49.466;11.176;2023-04-03T11:04:33;7.50;1.00
4699;DHT22;33708;49.466;11.176;2023-04-03T11:07:00;7.40;1.00
4699;DHT22;33708;49.466;11.176;2023-04-03T11:09:32;7.30;1.00
4699;DHT22;33708;49.466;11.176;2023-04-03T11:14:46;7.50;1.00
4699;DHT22;33708;49.466;11.176;2023-04-03T11:19:59;8.00;1.00
4699;DHT22;33708;49.466;11.176;2023-04-03T11:23:15;7.70;1.00
4699;DHT22;33708;49.466;11.176;2023-04-03T11:25:23;7.80;1.00
4699;DHT22;33708;49.466;11.176;2023-04-03T11:27:55;7.50;1.00
4699;DHT22;33708;49.466;11.176;2023-04-03T11:30:37;6.80;1.00
4699;DHT22;33708;49.466;11.176;2023-04-03T11:36:29;8.40;1.00
4699;DHT22;33708;49.466;11.176;2023-04-03T11:38:59;9.50;1.00
4699;DHT22;33708;49.466;11.176;2023-04-03T11:41:31;9.60;1.00
4699;DHT22;33708;49.466;11.176;2023-04-03T11:44:06;9.40;1.00
4699;DHT22;33708;49.466;11.176;2023-04-03T11:46:54;9.30;1.00
4699;DHT22;33708;49.466;11.176;2023-04-03T11:50:04;9.20;1.00
4699;DHT22;33708;49.466;11.176;2023-04-03T12:06:41;8.60;1.00
4699;DHT22;33708;49.466;11.176;2023-04-03T12:08:44;8.90;1.00
4699;DHT22;33708;49.466;11.176;2023-04-03T12:11:14;7.70;1.00
4699;DHT22;33708;49.466;11.176;2023-04-03T12:16:25;8.20;1.00
4699;DHT22;33708;49.466;11.176;2023-04-03T12:29:45;8.80;1.00
4699;DHT22;33708;49.466;11.176;2023-04-03T12:38:10;10.50;1.00
4699;DHT22;33708;49.466;11.176;2023-04-03T12:40:47;10.30;1.00
4699;DHT22;33708;49.466;11.176;2023-04-03T12:43:35;9.90;1.00
4699;DHT22;33708;49.466;11.176;2023-04-03T12:51:37;9.00;1.00
4699;DHT22;33708;49.466;11.176;2023-04-03T12:54:12;9.00;1.00
4699;DHT22;33708;49.466;11.176;2023-04-03T12:56:39;8.40;1.00
4699;DHT22;33708;49.466;11.176;2023-04-03T12:59:24;8.20;1.00
4699;DHT22;33708;49.466;11.176;2023-04-03T13:04:20;8.60;1.00
4699;DHT22;33708;49.466;11.176;2023-04-03T13:06:46;8.90;1.00
4699;DHT22;33708;49.466;11.176;2023-04-03T13:09:23;9.10;1.00
4699;DHT22;33708;49.466;11.176;2023-04-03T13:11:54;9.40;1.00
4699;DHT22;33708;49.466;11.176;2023-04-03T13:14:24;9.50;1.00
4699;DHT22;33708;49.466;11.176;2023-04-03T13:19:23;10.30;1.00
4699;DHT22;33708;49.466;11.176;2023-04-03T13:21:52;10.70;1.00
4699;DHT22;33708;49.466;11.176;2023-04-03T13:24:21;9.50;1.00
4699;DHT22;33708;49.466;11.176;2023-04-03T13:26:46;9.40;1.00
4699;DHT22;33708;49.466;11.176;2023-04-03T13:29:36;8.60;1.00
4699;DHT22;33708;49.466;11.176;2023-04-03T13:32:03;9.10;1.00
4699;DHT22;33708;49.466;11.176;2023-04-03T13:34:37;8.20;1.00
4699;DHT22;33708;49.466;11.176;2023-04-03T13:37:04;9.00;1.00
4699;DHT22;33708;49.466;11.176;2023-04-03T13:39:32;9.30;1.00
4699;DHT22;33708;49.466;11.176;2023-04-03T13:42:00;9.60;1.00
4699;DHT22;33708;49.466;11.176;2023-04-03T13:44:35;10.30;1.00
4699;DHT22;33708;49.466;11.176;2023-04-03T13:50:03;10.40;1.00
4699;DHT22;33708;49.466;11.176;2023-04-03T13:52:32;9.50;1.00
4699;DHT22;33708;49.466;11.176;2023-04-03T13:55:11;10.10;1.00
4699;DHT22;33708;49.466;11.176;2023-04-03T13:58:21;10.20;1.00
4699;DHT22;33708;49.466;11.176;2023-04-03T14:00:51;9.30;1.00
4699;DHT22;33708;49.466;11.176;2023-04-03T14:03:22;8.60;1.00
4699;DHT22;33708;49.466;11.176;2023-04-03T14:05:47;8.60;1.00
4699;DHT22;33708;49.466;11.176;2023-04-03T14:08:13;8.30;1.00
4699;DHT22;33708;49.466;11.176;2023-04-03T14:10:38;8.10;1.00
4699;DHT22;33708;49.466;11.176;2023-04-03T14:13:05;8.00;1.00
4699;DHT22;33708;49.466;11.176;2023-04-03T14:15:31;8.20;1.00
4699;DHT22;33708;49.466;11.176;2023-04-03T14:17:58;9.10;1.00
4699;DHT22;33708;49.466;11.176;2023-04-03T14:20:25;9.60;1.00
4699;DHT22;33708;49.466;11.176;2023-04-03T14:22:52;10.00;1.00
4699;DHT22;33708;49.466;11.176;2023-04-03T14:25:20;9.60;1.00
4699;DHT22;33708;49.466;11.176;2023-04-03T14:27:49;8.80;1.00
4699;DHT22;33708;49.466;11.176;2023-04-03T14:30:25;8.80;1.00
4699;DHT22;33708;49.466;11.176;2023-04-03T14:32:51;8.60;1.00
4699;DHT22;33708;49.466;11.176;2023-04-03T14:35:17;8.10;1.00
4699;DHT22;33708;49.466;11.176;2023-04-03T14:37:44;8.30;1.00
4699;DHT22;33708;49.466;11.176;2023-04-03T14:40:15;8.30;1.00
4699;DHT22;33708;49.466;11.176;2023-04-03T14:42:41;8.50;1.00
4699;DHT22;33708;49.466;11.176;2023-04-03T14:45:10;9.10;1.00
4699;DHT22;33708;49.466;11.176;2023-04-03T14:47:51;9.00;1.00
4699;DHT22;33708;49.466;11.176;2023-04-03T14:50:20;8.70;1.00
4699;DHT22;33708;49.466;11.176;2023-04-03T14:52:50;8.70;1.00
4699;DHT22;33708;49.466;11.176;2023-04-03T14:55:17;8.00;1.00
4699;DHT22;33708;49.466;11.176;2023-04-03T14:57:43;7.80;1.00
4699;DHT22;33708;49.466;11.176;2023-04-03T15:00:20;7.70;1.00
4699;DHT22;33708;49.466;11.176;2023-04-03T15:02:46;7.80;1.00
4699;DHT22;33708;49.466;11.176;2023-04-03T15:05:13;7.70;1.00
4699;DHT22;33708;49.466;11.176;2023-04-03T15:07:42;8.00;1.00
4699;DHT22;33708;49.466;11.176;2023-04-03T15:12:39;8.20;1.00
4699;DHT22;33708;49.466;11.176;2023-04-03T15:15:06;8.90;1.00
4699;DHT22;33708;49.466;11.176;2023-04-03T15:17:32;8.70;1.00
4699;DHT22;33708;49.466;11.176;2023-04-03T15:19:59;8.30;1.00
4699;DHT22;33708;49.466;11.176;2023-04-03T15:22:26;7.50;1.00
4699;DHT22;33708;49.466;11.176;2023-04-03T15:24:51;7.60;1.00
4699;DHT22;33708;49.466;11.176;2023-04-03T15:27:17;7.50;1.00
4699;DHT22;33708;49.466;11.176;2023-04-03T15:29:43;7.30;1.00
4699;DHT22;33708;49.466;11.176;2023-04-03T15:32:10;7.10;1.00
4699;DHT22;33708;49.466;11.176;2023-04-03T15:34:37;7.30;1.00
4699;DHT22;33708;49.466;11.176;2023-04-03T15:37:02;7.30;1.00
4699;DHT22;33708;49.466;11.176;2023-04-03T15:39:28;7.20;1.00
4699;DHT22;33708;49.466;11.176;2023-04-03T15:41:55;7.30;1.00
4699;DHT22;33708;49.466;11.176;2023-04-03T15:44:21;7.40;1.00
4699;DHT22;33708;49.466;11.176;2023-04-03T15:46:47;7.40;1.00
4699;DHT22;33708;49.466;11.176;2023-04-03T15:49:14;7.30;1.00
4699;DHT22;33708;49.466;11.176;2023-04-03T15:51:40;7.20;1.00
4699;DHT22;33708;49.466;11.176;2023-04-03T15:54:06;7.20;1.00
4699;DHT22;33708;49.466;11.176;2023-04-03T15:56:32;7.10;1.00
4699;DHT22;33708;49.466;11.176;2023-04-03T15:58:57;7.20;1.00
4699;DHT22;33708;49.466;11.176;2023-04-03T16:01:23;7.30;1.00
4699;DHT22;33708;49.466;11.176;2023-04-03T16:03:48;7.20;1.00
4699;DHT22;33708;49.466;11.176;2023-04-03T16:06:15;7.40;1.00
4699;DHT22;33708;49.466;11.176;2023-04-03T16:08:43;7.20;1.00
4699;DHT22;33708;49.466;11.176;2023-04-03T16:11:08;6.80;1.00
4699;DHT22;33708;49.466;11.176;2023-04-03T16:13:35;6.80;1.00
4699;DHT22;33708;49.466;11.176;2023-04-03T16:16:01;6.60;1.00
4699;DHT22;33708;49.466;11.176;2023-04-03T16:18:28;6.50;1.00
4699;DHT22;33708;49.466;11.176;2023-04-03T16:20:54;6.50;1.00
4699;DHT22;33708;49.466;11.176;2023-04-03T16:23:20;6.50;1.00
4699;DHT22;33708;49.466;11.176;2023-04-03T16:25:47;6.40;1.00
4699;DHT22;33708;49.466;11.176;2023-04-03T16:28:13;6.20;1.00
4699;DHT22;33708;49.466;11.176;2023-04-03T16:30:41;6.20;1.00
4699;DHT22;33708;49.466;11.176;2023-04-03T16:33:06;6.20;1.00
4699;DHT22;33708;49.466;11.176;2023-04-03T16:35:33;6.10;1.00
4699;DHT22;33708;49.466;11.176;2023-04-03T16:37:58;6.10;1.00
4699;DHT22;33708;49.466;11.176;2023-04-03T16:40:24;6.00;1.00
4699;DHT22;33708;49.466;11.176;2023-04-03T16:42:50;5.90;1.00
4699;DHT22;33708;49.466;11.176;2023-04-03T16:45:15;5.80;1.00
4699;DHT22;33708;49.466;11.176;2023-04-03T16:47:41;5.60;1.00
4699;DHT22;33708;49.466;11.176;2023-04-03T16:50:07;5.60;1.00
4699;DHT22;33708;49.466;11.176;2023-04-03T16:52:33;5.40;1.00
4699;DHT22;33708;49.466;11.176;2023-04-03T16:54:59;4.50;1.00
4699;DHT22;33708;49.466;11.176;2023-04-03T16:57:25;5.40;1.00
4699;DHT22;33708;49.466;11.176;2023-04-03T16:59:51;5.30;1.00
4699;DHT22;33708;49.466;11.176;2023-04-03T17:02:17;5.10;1.00
4699;DHT22;33708;49.466;11.176;2023-04-03T17:04:43;5.10;1.00
4699;DHT22;33708;49.466;11.176;2023-04-03T17:07:09;5.00;1.00
4699;DHT22;33708;49.466;11.176;2023-04-03T17:09:34;5.00;1.00
4699;DHT22;33708;49.466;11.176;2023-04-03T17:12:00;5.00;1.00
4699;DHT22;33708;49.466;11.176;2023-04-03T17:14:26;4.90;1.00
4699;DHT22;33708;49.466;11.176;2023-04-03T17:16:52;4.80;1.00
4699;DHT22;33708;49.466;11.176;2023-04-03T17:19:17;4.70;1.00
4699;DHT22;33708;49.466;11.176;2023-04-03T17:21:44;4.80;1.00
4699;DHT22;33708;49.466;11.176;2023-04-03T17:24:11;4.60;1.00
4699;DHT22;33708;49.466;11.176;2023-04-03T17:26:39;4.50;1.00
4699;DHT22;33708;49.466;11.176;2023-04-03T17:29:05;4.40;1.00
4699;DHT22;33708;49.466;11.176;2023-04-03T17:31:31;4.30;1.00
4699;DHT22;33708;49.466;11.176;2023-04-03T17:33:57;4.20;1.00
4699;DHT22;33708;49.466;11.176;2023-04-03T17:36:27;4.20;1.00
4699;DHT22;33708;49.466;11.176;2023-04-03T17:38:52;4.10;1.00
4699;DHT22;33708;49.466;11.176;2023-04-03T17:41:18;4.60;1.00
4699;DHT22;33708;49.466;11.176;2023-04-03T17:43:44;3.90;1.00
4699;DHT22;33708;49.466;11.176;2023-04-03T17:46:10;3.90;1.00
4699;DHT22;33708;49.466;11.176;2023-04-03T17:48:38;3.80;1.00
4699;DHT22;33708;49.466;11.176;2023-04-03T17:51:09;3.80;1.00
4699;DHT22;33708;49.466;11.176;2023-04-03T17:53:35;3.70;1.00